KCAO/CAO METAR and TAF weather

Enter ICAO airport designator
Station Type Date Time Source
KCAO METAR 2022/11/26 08:55 UTC NOAA

KCAO 260855Z AUTO 27007KT 10SM FEW080 02/M12 A3005 RMK AO2 SLP166 T00171117 58031 $


Station Type Date Time Source
KCAO Decoded METAR 2022/11/26 08:55 UTC NOAA

CLAYTON MUNICIPAL AIRPARK, NM, United States (KCAO) 36-27N 103-09W 1514M
Nov 26, 2022 - 03:55 AM EST / 2022.11.26 0855 UTC
Wind: from the W (270 degrees) at 8 MPH (7 KT):0
Visibility: 10 mile(s):0
Sky conditions: mostly clear
Temperature: 35.1 F (1.7 C)
Dew Point: 10.9 F (-11.7 C)
Relative Humidity: 36%
Pressure (altimeter): 30.05 in. Hg (1017 hPa)
Pressure tendency: 0.09 inches (3.1 hPa) lower than three hours ago
ob: KCAO 260855Z AUTO 27007KT 10SM FEW080 02/M12 A3005 RMK AO2 SLP166 T00171117 58031
cycle: 9

Station Type Date Time Source
KCAO TAF UTC NOAA

Error!

Example: see airport list